Time;durP1;ratioP1;P1;durP2;ratioP2;P2;SDS_P1;SDS_P2;PMS_P1;PMS_P2;Temp;Humidity;BMP_temperature;BMP_pressure;BME280_temperature;BME280_humidity;BME280_pressure;Samples;Min_cycle;Max_cycle;Signal;HPM_P1;HPM_P2
2021/04/15 00:00:57;;;;;;;26.62;18.17;;;;;;;11.31;63.11;99383.87;1781294;79;21586;-63
2021/04/15 00:03:28;;;;;;;21.70;17.02;;;;;;;11.25;63.36;99376.84;1781892;79;21191;-66
2021/04/15 00:06:01;;;;;;;23.43;18.53;;;;;;;11.22;63.46;99379.25;1755166;80;21039;-62
2021/04/15 00:08:30;;;;;;;18.95;16.48;;;;;;;11.19;63.63;99378.41;1755523;80;21066;-61
2021/04/15 00:10:59;;;;;;;20.40;15.85;;;;;;;11.16;63.73;99379.76;1782694;80;21122;-62
2021/04/15 00:13:33;;;;;;;24.15;15.45;;;;;;;11.18;63.65;99374.91;1773786;80;20994;-61
2021/04/15 00:16:02;;;;;;;18.92;13.75;;;;;;;11.21;63.57;99377.09;1756944;80;22289;-63
2021/04/15 00:18:33;;;;;;;19.35;16.32;;;;;;;11.23;63.53;99374.94;1755392;80;21026;-64
2021/04/15 00:21:04;;;;;;;19.12;14.87;;;;;;;11.24;63.52;99377.09;1733092;80;21082;-63
2021/04/15 00:23:32;;;;;;;21.45;16.73;;;;;;;11.26;63.50;99374.97;1761906;81;21190;-63
2021/04/15 00:26:01;;;;;;;28.15;18.02;;;;;;;11.25;63.49;99370.11;1805965;78;22236;-65
2021/04/15 00:28:29;;;;;;;21.82;15.40;;;;;;;11.25;63.49;99367.42;1778753;78;21212;-66
2021/04/15 00:30:57;;;;;;;21.48;16.35;;;;;;;11.25;63.49;99363.38;1781125;78;21621;-65
2021/04/15 00:33:24;;;;;;;20.25;17.15;;;;;;;11.25;63.51;99363.38;1811898;78;21607;-65
2021/04/15 00:35:54;;;;;;;22.52;18.15;;;;;;;11.25;63.52;99365.26;1772214;80;21110;-66
2021/04/15 00:38:24;;;;;;;24.65;20.35;;;;;;;11.25;63.58;99367.95;1752452;81;22013;-65
2021/04/15 00:40:53;;;;;;;26.20;19.73;;;;;;;11.25;63.61;99362.56;1751397;81;21153;-65
2021/04/15 00:43:24;;;;;;;21.80;16.57;;;;;;;11.24;63.65;99360.94;1792906;80;21615;-65
2021/04/15 00:45:54;;;;;;;23.12;17.05;;;;;;;11.24;63.67;99366.33;1816610;78;21132;-66
2021/04/15 00:48:41;;;;;;;19.48;15.08;;;;;;;11.22;63.74;99357.16;1810900;78;21170;-66
2021/04/15 00:51:38;;;;;;;23.65;18.52;;;;;;;11.20;63.86;99366.58;1768940;80;21196;-66
2021/04/15 00:54:14;;;;;;;25.20;18.95;;;;;;;11.12;64.34;99365.20;1769018;78;21146;-65
2021/04/15 00:56:41;;;;;;;23.92;18.07;;;;;;;11.06;64.45;99362.73;1787427;80;21066;-65
2021/04/15 00:59:09;;;;;;;27.45;20.15;;;;;;;11.00;64.86;99357.86;1763588;80;21186;-67
2021/04/15 01:01:37;;;;;;;23.00;18.32;;;;;;;10.93;65.04;99355.39;1778789;78;21106;-65
2021/04/15 01:04:05;;;;;;;24.25;17.35;;;;;;;10.90;65.21;99358.61;1810151;78;21165;-64
2021/04/15 01:06:33;;;;;;;26.10;18.35;;;;;;;10.90;65.37;99363.17;1787326;80;21133;-67
2021/04/15 01:09:02;;;;;;;24.18;18.52;;;;;;;10.85;65.50;99359.92;1748599;80;21023;-61
2021/04/15 01:11:41;;;;;;;22.45;15.80;;;;;;;10.83;65.64;99359.92;1761245;78;21126;-65
2021/04/15 01:14:40;;;;;;;21.15;16.07;;;;;;;10.79;65.71;99358.26;1809700;78;21150;-64
2021/04/15 01:17:38;;;;;;;21.40;13.22;;;;;;;10.77;65.77;99351.00;1720599;80;21420;-64
2021/04/15 01:20:39;;;;;;;21.80;17.32;;;;;;;10.78;65.76;99352.63;1741676;81;21177;-62
2021/04/15 01:23:23;;;;;;;25.32;17.95;;;;;;;10.78;65.72;99347.78;1776953;78;21586;-63
2021/04/15 01:26:37;;;;;;;19.85;15.53;;;;;;;10.81;65.66;99348.59;1769664;80;22054;-62
2021/04/15 01:29:42;;;;;;;22.25;17.65;;;;;;;10.83;65.65;99347.81;1712747;82;21194;-64
2021/04/15 01:32:36;;;;;;;20.08;16.17;;;;;;;10.84;65.64;99348.06;1740721;80;21210;-63
2021/04/15 01:35:22;;;;;;;20.50;17.37;;;;;;;10.85;65.60;99349.69;1712526;82;21244;-65
2021/04/15 01:38:11;;;;;;;24.70;16.35;;;;;;;10.86;65.53;99346.75;1719416;80;21236;-63
2021/04/15 01:40:46;;;;;;;26.07;16.50;;;;;;;10.88;65.49;99346.50;1773314;80;21041;-63
2021/04/15 01:43:47;;;;;;;19.92;16.90;;;;;;;10.91;65.48;99338.71;1845925;76;29109;-62
2021/04/15 01:49:05;;;;;;;21.62;16.48;;;;;;;10.79;65.82;99342.12;1801783;79;21348;-61
2021/04/15 01:51:43;;;;;;;22.20;17.37;;;;;;;10.71;66.09;99336.42;1769753;80;21097;-61
2021/04/15 01:54:26;;;;;;;25.08;17.95;;;;;;;10.66;66.33;99334.51;1749027;81;21159;-64
2021/04/15 01:57:13;;;;;;;20.80;16.73;;;;;;;10.64;66.38;99329.95;1705899;82;21054;-62
2021/04/15 01:59:50;;;;;;;21.82;16.52;;;;;;;10.63;66.41;99328.31;1738691;81;20951;-62
2021/04/15 02:02:37;;;;;;;21.68;16.65;;;;;;;10.65;66.33;99334.76;1783473;80;21403;-62
2021/04/15 02:05:22;;;;;;;19.95;15.32;;;;;;;10.68;66.24;99331.58;1784970;80;21606;-62
2021/04/15 02:08:00;;;;;;;23.18;15.93;;;;;;;10.68;66.19;99331.04;1785170;80;21558;-62
2021/04/15 02:10:28;;;;;;;20.62;16.07;;;;;;;10.68;66.18;99339.64;1785051;80;21112;-62
2021/04/15 02:12:56;;;;;;;19.00;16.15;;;;;;;10.66;66.19;99327.78;1760922;80;21171;-63
2021/04/15 02:15:30;;;;;;;20.45;16.35;;;;;;;10.64;66.23;99329.13;1754009;81;22172;-66
2021/04/15 02:18:04;;;;;;;21.68;16.23;;;;;;;10.61;66.27;99322.37;1753712;81;21156;-63
2021/04/15 02:20:31;;;;;;;21.23;16.93;;;;;;;10.58;66.37;99325.59;1767031;80;21031;-63
2021/04/15 02:23:08;;;;;;;21.45;16.87;;;;;;;10.56;66.42;99322.34;1777462;80;21634;-63
2021/04/15 02:25:56;;;;;;;19.98;15.38;;;;;;;10.54;66.50;99318.30;1766223;80;21097;-62
2021/04/15 02:28:51;;;;;;;24.27;17.30;;;;;;;10.52;66.57;99321.77;1785094;80;22305;-64
2021/04/15 02:31:25;;;;;;;21.02;16.40;;;;;;;10.48;66.64;99322.83;1755906;80;20978;-64
2021/04/15 02:34:06;;;;;;;19.57;15.13;;;;;;;10.44;66.80;99320.38;1782673;80;21109;-63
2021/04/15 02:36:42;;;;;;;19.32;15.45;;;;;;;10.41;67.00;99324.91;1766914;80;21184;-63
2021/04/15 02:39:13;;;;;;;22.80;18.00;;;;;;;10.34;67.23;99322.98;1749203;81;21191;-61
2021/04/15 02:41:41;;;;;;;19.73;15.93;;;;;;;10.31;67.46;99324.30;1735297;80;21231;-61
2021/04/15 02:44:22;;;;;;;26.20;17.42;;;;;;;10.29;67.54;99322.42;1764524;80;21179;-62
2021/04/15 02:46:56;;;;;;;14.93;13.32;;;;;;;10.28;67.56;99316.77;1782723;80;21052;-63
2021/04/15 02:49:26;;;;;;;23.52;16.95;;;;;;;10.30;67.67;99318.67;1781334;80;21163;-62
2021/04/15 02:52:05;;;;;;;21.62;16.45;;;;;;;10.26;67.73;99314.87;1783036;80;20992;-63
2021/04/15 02:54:46;;;;;;;23.62;17.27;;;;;;;10.25;67.83;99307.06;1773148;80;21361;-64
2021/04/15 02:57:34;;;;;;;23.27;16.17;;;;;;;10.27;67.86;99308.41;1782699;80;21142;-62
2021/04/15 03:00:26;;;;;;;24.00;18.20;;;;;;;10.29;67.87;99306.83;1778124;80;21646;-63
2021/04/15 03:03:11;;;;;;;23.90;17.20;;;;;;;10.34;67.91;99306.33;1846374;76;27484;-61
2021/04/15 03:05:46;;;;;;;22.40;16.05;;;;;;;10.32;67.98;99311.67;1817269;79;21027;-61
2021/04/15 03:08:20;;;;;;;21.77;16.75;;;;;;;10.39;67.98;99312.28;1816878;78;21184;-62
2021/04/15 03:10:54;;;;;;;22.52;18.12;;;;;;;10.43;67.90;99319.56;1817074;78;21007;-64
2021/04/15 03:13:27;;;;;;;20.60;17.52;;;;;;;10.48;67.81;99317.45;1814997;79;21019;-63
2021/04/15 03:16:06;;;;;;;22.55;17.37;;;;;;;10.54;67.69;99315.61;1806581;79;21026;-61
2021/04/15 03:18:53;;;;;;;21.48;17.42;;;;;;;10.56;67.56;99316.14;1794614;79;20971;-62
2021/04/15 03:21:33;;;;;;;20.77;16.67;;;;;;;10.57;67.52;99313.20;1816895;78;21615;-61
2021/04/15 03:24:19;;;;;;;28.15;17.77;;;;;;;10.57;67.50;99311.05;1792606;78;20993;-62
2021/04/15 03:26:59;;;;;;;23.90;16.45;;;;;;;10.52;67.58;99313.17;1785105;80;21189;-61
2021/04/15 03:29:29;;;;;;;27.50;17.70;;;;;;;10.49;67.65;99311.82;1792153;79;21188;-61
2021/04/15 03:32:40;;;;;;;18.95;16.40;;;;;;;10.49;67.68;99312.36;1760257;79;21603;-63
2021/04/15 03:35:15;;;;;;;25.72;19.07;;;;;;;10.48;67.75;99310.20;1817222;79;22201;-64
2021/04/15 03:37:58;;;;;;;20.68;16.95;;;;;;;10.46;67.89;99308.82;1787090;78;20987;-64
2021/04/15 03:40:29;;;;;;;24.50;18.82;;;;;;;10.45;67.97;99309.34;1813875;79;21070;-64
2021/04/15 03:43:07;;;;;;;21.68;16.60;;;;;;;10.43;67.98;99303.44;1817067;78;21014;-63
2021/04/15 03:45:49;;;;;;;19.77;15.48;;;;;;;10.44;68.06;99309.09;1787342;79;21395;-62
2021/04/15 03:48:29;;;;;;;24.27;16.70;;;;;;;10.45;68.08;99316.07;1808100;79;21185;-63
2021/04/15 03:51:13;;;;;;;19.25;16.17;;;;;;;10.46;68.08;99312.31;1802089;79;21695;-63
2021/04/15 03:54:00;;;;;;;23.55;19.07;;;;;;;10.49;68.07;99320.42;1785660;79;21172;-64
2021/04/15 03:56:46;;;;;;;21.80;17.45;;;;;;;10.55;68.08;99309.95;1875080;75;28182;-66
2021/04/15 03:59:42;;;;;;;23.12;18.37;;;;;;;10.53;68.01;99317.48;1861496;77;21149;-63
2021/04/15 04:02:18;;;;;;;23.25;17.48;;;;;;;10.58;67.87;99320.74;1834611;77;21430;-64
2021/04/15 04:04:54;;;;;;;21.33;18.62;;;;;;;10.60;67.75;99318.62;1747822;81;21018;-64
2021/04/15 04:07:37;;;;;;;26.85;20.45;;;;;;;10.61;67.74;99321.56;1762563;80;21606;-64
2021/04/15 04:10:14;;;;;;;20.72;16.35;;;;;;;10.56;67.90;99322.34;1786555;79;21450;-63
2021/04/15 04:12:48;;;;;;;24.67;15.83;;;;;;;10.49;68.00;99326.61;1813393;79;21089;-63
2021/04/15 04:15:27;;;;;;;16.02;14.03;;;;;;;10.48;68.06;99322.83;1804528;78;21029;-64
2021/04/15 04:18:08;;;;;;;26.35;17.23;;;;;;;10.46;68.18;99327.11;1784951;80;21058;-63
2021/04/15 04:20:38;;;;;;;17.25;15.38;;;;;;;10.46;68.22;99333.02;1785853;79;21050;-64
2021/04/15 04:23:32;;;;;;;23.92;17.02;;;;;;;10.48;68.31;99332.23;1807111;79;21587;-63
2021/04/15 04:26:21;;;;;;;22.35;18.25;;;;;;;10.48;68.32;99327.67;1817643;79;21193;-65
2021/04/15 04:29:23;;;;;;;23.52;16.77;;;;;;;10.54;68.35;99332.55;1780852;78;21201;-63
2021/04/15 04:31:54;;;;;;;19.67;15.65;;;;;;;10.61;68.15;99329.63;1757100;81;21860;-62
2021/04/15 04:34:21;;;;;;;29.42;22.42;;;;;;;10.67;67.97;99336.67;1796939;78;21046;-63
2021/04/15 04:36:51;;;;;;;38.08;24.00;;;;;;;10.65;68.25;99330.20;1773946;79;21642;-62
2021/04/15 04:39:19;;;;;;;29.72;21.12;;;;;;;10.66;68.47;99332.35;1767410;80;21036;-66
2021/04/15 04:42:18;;;;;;;33.80;22.50;;;;;;;10.69;68.47;99329.98;1789861;80;21360;-65
2021/04/15 04:44:51;;;;;;;36.03;24.05;;;;;;;10.68;68.49;99329.70;1789928;80;21212;-65
2021/04/15 04:48:05;;;;;;;29.63;23.12;;;;;;;10.68;68.61;99343.14;1822116;78;21118;-63
2021/04/15 04:50:44;;;;;;;24.60;20.55;;;;;;;10.67;68.62;99334.80;1815192;78;21231;-66
2021/04/15 04:53:16;;;;;;;30.65;21.00;;;;;;;10.62;68.72;99336.10;1790010;80;21599;-63
2021/04/15 04:55:51;;;;;;;34.40;23.10;;;;;;;10.59;68.85;99337.97;1759590;80;21206;-65
2021/04/15 04:58:19;;;;;;;31.82;20.48;;;;;;;10.62;68.89;99332.59;1733035;81;21164;-63
2021/04/15 05:00:50;;;;;;;31.35;22.27;;;;;;;10.64;68.75;99327.78;1793264;78;21161;-62
2021/04/15 05:03:23;;;;;;;25.35;18.92;;;;;;;10.63;68.86;99329.66;1793320;80;21168;-65
2021/04/15 05:06:08;;;;;;;23.45;17.95;;;;;;;10.65;68.68;99323.47;1819394;78;21177;-63
2021/04/15 05:09:01;;;;;;;24.40;17.98;;;;;;;10.69;68.50;99324.59;1825264;78;22259;-65
2021/04/15 05:11:30;;;;;;;22.73;17.82;;;;;;;10.69;68.37;99329.98;1792579;80;21644;-62
2021/04/15 05:13:59;;;;;;;31.95;20.60;;;;;;;10.71;68.34;99329.70;1792734;80;21652;-63
2021/04/15 05:16:31;;;;;;;30.82;20.55;;;;;;;10.71;68.40;99338.58;1810804;78;21129;-65
2021/04/15 05:18:58;;;;;;;25.77;20.32;;;;;;;10.74;68.39;99334.58;1787487;78;21275;-62
2021/04/15 05:21:26;;;;;;;26.40;20.43;;;;;;;10.77;68.28;99329.48;1792628;80;21199;-64
2021/04/15 05:24:24;;;;;;;28.32;21.00;;;;;;;10.77;68.21;99333.52;1766399;80;21125;-66
2021/04/15 05:26:55;;;;;;;27.37;22.62;;;;;;;10.78;68.29;99334.33;1762197;80;21152;-65
2021/04/15 05:29:32;;;;;;;26.15;20.92;;;;;;;10.80;68.33;99337.55;1792540;80;21190;-65
2021/04/15 05:32:00;;;;;;;31.55;24.25;;;;;;;10.85;68.36;99336.23;1809462;78;21141;-63
2021/04/15 05:34:41;;;;;;;31.80;24.30;;;;;;;10.86;68.32;99331.95;1825158;78;21567;-63
2021/04/15 05:37:19;;;;;;;23.52;18.42;;;;;;;10.91;68.35;99334.67;1818624;78;21531;-64
2021/04/15 05:39:47;;;;;;;29.60;23.67;;;;;;;11.01;68.16;99333.92;1804643;78;21149;-63
2021/04/15 05:42:38;;;;;;;28.92;21.75;;;;;;;11.00;68.03;99332.83;1825079;78;21155;-63
2021/04/15 05:45:11;;;;;;;30.05;22.17;;;;;;;10.97;68.16;99332.83;1808864;78;21595;-64
2021/04/15 05:48:01;;;;;;;30.00;24.05;;;;;;;10.97;68.29;99328.79;1788884;78;21216;-63
2021/04/15 05:50:42;;;;;;;28.57;21.10;;;;;;;11.03;68.20;99325.03;1821496;78;21192;-64
2021/04/15 05:53:32;;;;;;;35.68;23.12;;;;;;;11.09;67.92;99322.65;1824232;78;21539;-64
2021/04/15 05:56:11;;;;;;;27.40;21.77;;;;;;;11.07;67.99;99315.92;1822998;78;21145;-65
2021/04/15 05:59:29;;;;;;;29.37;20.00;;;;;;;11.10;68.02;99312.70;1754317;80;21184;-64
2021/04/15 06:02:38;;;;;;;32.93;26.02;;;;;;;11.16;68.00;99323.77;1791571;78;21261;-64
2021/04/15 06:05:22;;;;;;;35.13;25.08;;;;;;;11.21;67.70;99317.06;1775037;79;21080;-66
2021/04/15 06:07:51;;;;;;;;;;;;;;;11.16;67.69;99317.84;1797847;80;21145;-65
2021/04/15 06:10:24;;;;;;;29.37;22.70;;;;;;;11.15;67.84;99312.19;1795632;78;20126;-66
2021/04/15 06:13:11;;;;;;;26.15;21.00;;;;;;;11.18;67.90;99315.69;1795169;80;21071;-65
2021/04/15 06:15:46;;;;;;;25.40;20.17;;;;;;;11.22;67.90;99318.69;1762048;81;21578;-64
2021/04/15 06:18:40;;;;;;;29.45;21.02;;;;;;;11.29;67.81;99324.09;1763765;81;21156;-63
2021/04/15 06:21:27;;;;;;;32.10;25.02;;;;;;;11.30;67.80;99320.33;1765902;80;21037;-63
2021/04/15 06:24:02;;;;;;;29.18;21.60;;;;;;;11.37;67.66;99325.45;1762668;80;21584;-63
2021/04/15 06:26:46;;;;;;;25.70;21.65;;;;;;;11.40;67.43;99324.95;1795071;80;21171;-62
2021/04/15 06:29:42;;;;;;;25.15;19.02;;;;;;;11.44;67.42;99336.80;1795160;80;21385;-64
2021/04/15 06:32:18;;;;;;;29.65;23.20;;;;;;;11.50;67.35;99330.37;1794968;80;21246;-62
2021/04/15 06:34:46;;;;;;;28.90;23.10;;;;;;;11.51;66.96;99327.92;1794993;80;20990;-63
2021/04/15 06:37:22;;;;;;;31.60;23.07;;;;;;;11.53;66.80;99327.13;1795087;78;21146;-67
2021/04/15 06:39:56;;;;;;;35.15;25.02;;;;;;;11.54;66.70;99325.25;1794363;80;21595;-63
2021/04/15 06:43:07;;;;;;;25.90;20.88;;;;;;;11.57;66.71;99329.56;1766642;80;21342;-63
2021/04/15 06:46:10;;;;;;;28.87;23.32;;;;;;;11.65;66.58;99327.72;1824461;78;21803;-63
2021/04/15 06:49:04;;;;;;;32.42;24.47;;;;;;;11.73;66.17;99330.45;1827715;78;21191;-65
2021/04/15 06:51:59;;;;;;;34.23;24.60;;;;;;;11.77;65.77;99319.41;1818111;78;21162;-64
2021/04/15 06:54:43;;;;;;;27.62;23.00;;;;;;;11.80;66.06;99322.91;1795826;78;21173;-65
2021/04/15 06:57:41;;;;;;;33.28;23.62;;;;;;;11.87;65.67;99328.05;1768473;78;21437;-65
2021/04/15 07:00:41;;;;;;;35.28;23.30;;;;;;;11.91;65.55;99328.59;1747034;82;21240;-64
2021/04/15 07:03:17;;;;;;;32.98;23.73;;;;;;;12.00;65.54;99327.52;1757007;80;21038;-65
2021/04/15 07:05:52;;;;;;;36.68;24.87;;;;;;;12.08;65.15;99327.02;1747057;81;21182;-66
2021/04/15 07:08:37;;;;;;;37.35;26.15;;;;;;;12.12;65.02;99329.44;1755499;81;21186;-66
2021/04/15 07:11:46;;;;;;;38.35;28.35;;;;;;;12.16;64.62;99327.28;1755656;81;21852;-64
2021/04/15 07:14:46;;;;;;;26.55;23.70;;;;;;;12.20;64.37;99333.75;1766946;80;21134;-65
2021/04/15 07:17:48;;;;;;;27.07;22.00;;;;;;;12.30;63.94;99323.51;1773356;80;21669;-75
2021/04/15 07:20:51;;;;;;;29.10;21.68;;;;;;;12.35;63.33;99326.20;1769476;80;20987;-63
2021/04/15 07:24:11;;;;;;;28.83;23.00;;;;;;;12.42;63.02;99327.30;1755602;81;21085;-64
2021/04/15 07:27:25;;;;;;;31.27;22.20;;;;;;;12.49;62.87;99327.28;1760943;81;21208;-66
2021/04/15 07:30:43;;;;;;;34.63;24.57;;;;;;;12.59;62.70;99332.67;1742764;80;21133;-65
2021/04/15 07:33:56;;;;;;;24.40;18.32;;;;;;;12.68;62.01;99327.52;1734162;82;21141;-64
2021/04/15 07:36:51;;;;;;;23.30;18.32;;;;;;;12.85;61.53;99328.05;1739812;82;21238;-63
2021/04/15 07:39:49;;;;;;;29.23;20.48;;;;;;;12.99;60.68;99325.05;1740082;82;21149;-64
2021/04/15 07:42:43;;;;;;;25.27;19.52;;;;;;;13.11;60.21;99331.50;1770798;80;21509;-64
2021/04/15 07:45:17;;;;;;;21.10;17.62;;;;;;;13.24;59.54;99326.86;1791962;80;21176;-64
2021/04/15 07:48:11;;;;;;;19.62;16.42;;;;;;;13.30;59.18;99328.46;1779125;80;20978;-67
2021/04/15 07:51:04;;;;;;;23.73;16.77;;;;;;;13.38;58.37;99327.09;1746872;82;21054;-63
2021/04/15 07:53:52;;;;;;;23.80;16.23;;;;;;;13.42;57.74;99328.16;1758938;80;21050;-65
2021/04/15 07:56:53;;;;;;;18.60;13.53;;;;;;;13.42;57.74;99335.72;1775147;79;22290;-65
2021/04/15 07:59:38;;;;;;;17.40;14.50;;;;;;;13.45;56.85;99327.05;1818903;78;21173;-65
2021/04/15 08:02:36;;;;;;;21.87;13.35;;;;;;;13.50;56.88;99331.63;1801488;79;21666;-65
2021/04/15 08:05:37;;;;;;;20.23;13.85;;;;;;;13.58;56.97;99326.17;1807336;78;21026;-67
2021/04/15 08:08:35;;;;;;;16.70;12.53;;;;;;;13.70;56.69;99323.95;1789272;80;21607;-64
2021/04/15 08:11:56;;;;;;;19.10;11.85;;;;;;;13.83;54.82;99326.03;1789138;80;21216;-66
2021/04/15 08:15:03;;;;;;;12.70;10.28;;;;;;;13.89;54.63;99328.97;1789183;78;21564;-65
2021/04/15 08:17:56;;;;;;;14.23;12.25;;;;;;;14.08;53.97;99319.66;1744630;82;21077;-65
2021/04/15 08:20:38;;;;;;;19.32;15.23;;;;;;;14.16;53.95;99319.04;1744506;82;21274;-67
2021/04/15 08:23:54;;;;;;;16.67;12.50;;;;;;;14.23;53.73;99312.78;1889218;76;22674;-65
2021/04/15 08:26:43;;;;;;;17.80;13.68;;;;;;;14.26;53.20;99315.72;1828434;77;21041;-63
2021/04/15 08:29:52;;;;;;;13.98;11.40;;;;;;;14.32;53.04;99311.89;1857565;77;21350;-67
2021/04/15 08:32:43;;;;;;;15.45;11.43;;;;;;;14.46;52.89;99309.36;1859768;77;20982;-66
2021/04/15 08:35:42;;;;;;;18.20;11.88;;;;;;;14.60;52.41;99306.79;1787427;77;21030;-67
2021/04/15 08:39:00;;;;;;;14.53;12.65;;;;;;;14.66;51.88;99305.66;1860080;77;21029;-63
2021/04/15 08:41:54;;;;;;;15.03;11.50;;;;;;;14.74;51.87;99299.61;1854822;77;21015;-65
2021/04/15 08:45:15;;;;;;;14.75;11.05;;;;;;;14.90;51.36;99302.43;1783130;80;21386;-65
2021/04/15 08:47:58;;;;;;;12.18;10.68;;;;;;;15.00;50.95;99296.91;1787272;80;21066;-66
2021/04/15 08:51:14;;;;;;;16.80;10.18;;;;;;;15.02;50.55;99296.59;1756027;80;21050;-64
2021/04/15 08:54:02;;;;;;;10.35;9.35;;;;;;;15.02;50.48;99294.70;1787356;80;21154;-64
2021/04/15 08:56:36;;;;;;;13.88;11.10;;;;;;;15.12;50.35;99292.42;1793153;79;21145;-65
2021/04/15 08:59:12;;;;;;;10.40;8.68;;;;;;;15.21;50.22;99287.42;1783848;79;21352;-64
2021/04/15 09:02:14;;;;;;;10.85;9.75;;;;;;;15.30;49.20;99291.64;1783681;80;21605;-65
2021/04/15 09:04:51;;;;;;;10.75;8.40;;;;;;;15.30;49.56;99284.09;1776026;80;21184;-63
2021/04/15 09:07:28;;;;;;;10.08;7.65;;;;;;;15.40;49.53;99286.64;1762586;79;21003;-69
2021/04/15 09:10:17;;;;;;;13.13;10.18;;;;;;;15.49;49.05;99287.63;1741867;81;21150;-65
2021/04/15 09:13:12;;;;;;;12.33;8.68;;;;;;;15.59;49.13;99282.08;1764532;81;21189;-68
2021/04/15 09:16:19;;;;;;;11.08;8.90;;;;;;;15.70;48.20;99281.66;1772247;80;21003;-66
2021/04/15 09:19:10;;;;;;;12.88;8.53;;;;;;;15.71;47.66;99271.62;1742124;80;21563;-65
2021/04/15 09:22:08;;;;;;;9.13;7.87;;;;;;;15.83;47.69;99275.22;1765055;81;21168;-64
2021/04/15 09:24:45;;;;;;;14.10;9.45;;;;;;;15.92;47.19;99272.13;1769648;80;20999;-67
2021/04/15 09:27:30;;;;;;;10.63;8.68;;;;;;;16.00;46.80;99272.80;1774619;80;21589;-66
2021/04/15 09:30:36;;;;;;;16.02;9.95;;;;;;;16.01;46.70;99281.20;1764981;80;21046;-64
2021/04/15 09:33:47;;;;;;;11.08;8.43;;;;;;;15.94;46.91;99272.08;1764444;81;20995;-64
2021/04/15 09:36:31;;;;;;;14.13;10.28;;;;;;;15.81;47.06;99274.73;1763896;81;21205;-64
2021/04/15 09:39:20;;;;;;;11.08;9.98;;;;;;;15.80;47.03;99278.53;1789329;79;21562;-63
2021/04/15 09:42:30;;;;;;;11.35;10.20;;;;;;;15.83;46.64;99272.52;1731383;82;21307;-65
2021/04/15 09:45:22;;;;;;;13.28;8.65;;;;;;;15.73;46.51;99274.83;1739099;80;21177;-66
2021/04/15 09:48:32;;;;;;;11.22;10.08;;;;;;;15.62;47.01;99271.48;1758393;80;21043;-66
2021/04/15 09:51:46;;;;;;;14.43;12.13;;;;;;;15.63;47.30;99270.36;1811563;79;21583;-66
2021/04/15 09:54:35;;;;;;;12.80;9.90;;;;;;;15.62;46.46;99265.25;1792200;80;21641;-65
2021/04/15 09:57:26;;;;;;;15.23;10.13;;;;;;;15.59;46.92;99278.82;1784893;80;22178;-73
2021/04/15 10:00:20;;;;;;;10.53;8.58;;;;;;;15.64;46.91;99274.69;1781391;80;21218;-64
2021/04/15 10:03:30;;;;;;;10.50;9.13;;;;;;;15.69;46.76;99269.73;1770988;80;21050;-66
2021/04/15 10:06:20;;;;;;;15.55;10.82;;;;;;;15.66;46.59;99263.01;1713581;82;21619;-63
2021/04/15 10:09:00;;;;;;;14.58;9.15;;;;;;;15.66;46.49;99263.56;1760108;80;22044;-65
2021/04/15 10:12:06;;;;;;;11.50;8.25;;;;;;;15.68;46.31;99266.80;1739707;82;21349;-66
2021/04/15 10:15:29;;;;;;;21.00;9.03;;;;;;;15.69;46.07;99265.12;1752005;80;21131;-68
2021/04/15 10:18:09;;;;;;;17.30;13.05;;;;;;;15.67;46.12;99261.11;1770937;80;21147;-68
2021/04/15 10:21:02;;;;;;;12.40;8.90;;;;;;;15.62;46.38;99261.18;1777021;80;21212;-66
2021/04/15 10:23:36;;;;;;;12.90;9.93;;;;;;;15.62;46.39;99258.47;1791512;80;21137;-67
2021/04/15 10:26:50;;;;;;;11.55;8.30;;;;;;;15.59;46.27;99261.20;1791959;80;21621;-62
2021/04/15 10:30:00;;;;;;;14.83;9.95;;;;;;;15.55;46.46;99258.83;1791957;80;21145;-72
2021/04/15 10:33:00;;;;;;;10.23;8.48;;;;;;;15.55;46.74;99253.95;1730820;80;21140;-69
2021/04/15 10:36:09;;;;;;;10.58;8.23;;;;;;;15.62;46.73;99263.34;1745574;80;21115;-66
2021/04/15 10:38:53;;;;;;;19.87;10.70;;;;;;;15.62;46.70;99261.98;1772705;81;21236;-65
2021/04/15 10:41:45;;;;;;;10.50;9.33;;;;;;;15.58;47.11;99257.45;1773007;80;20994;-64
2021/04/15 10:44:59;;;;;;;11.05;9.18;;;;;;;15.57;46.83;99266.67;1785995;80;21054;-68
2021/04/15 10:47:45;;;;;;;14.93;8.68;;;;;;;15.51;46.52;99261.87;1790147;80;21669;-66
2021/04/15 10:50:51;;;;;;;14.60;9.25;;;;;;;15.45;46.83;99267.06;1773446;80;21128;-69
2021/04/15 10:53:44;;;;;;;10.95;8.23;;;;;;;15.43;46.24;99257.08;1781332;80;21235;-70
2021/04/15 10:56:26;;;;;;;9.50;7.55;;;;;;;15.41;46.55;99257.91;1776674;80;21306;-70
2021/04/15 10:59:08;;;;;;;12.03;9.25;;;;;;;15.46;46.47;99257.03;1773427;80;21145;-69
2021/04/15 11:01:40;;;;;;;10.15;9.08;;;;;;;15.44;46.50;99258.70;1773467;80;21145;-68
2021/04/15 11:04:13;;;;;;;12.82;9.50;;;;;;;15.38;46.70;99257.15;1773740;80;21165;-66
2021/04/15 11:06:47;;;;;;;9.95;8.95;;;;;;;15.38;46.83;99256.34;1788909;79;21161;-66
2021/04/15 11:09:34;;;;;;;11.03;9.78;;;;;;;15.41;46.76;99261.16;1763097;80;21234;-65
2021/04/15 11:12:22;;;;;;;11.63;9.53;;;;;;;15.46;46.68;99259.20;1791935;79;21019;-68
2021/04/15 11:14:56;;;;;;;9.38;7.65;;;;;;;15.46;46.75;99257.03;1780853;79;21216;-65
2021/04/15 11:17:33;;;;;;;11.83;8.70;;;;;;;15.48;46.50;99261.08;1780734;80;21019;-67
2021/04/15 11:20:26;;;;;;;16.93;10.32;;;;;;;15.50;46.50;99264.83;1773744;80;21147;-68
2021/04/15 11:23:09;;;;;;;9.78;8.43;;;;;;;15.46;46.56;99259.20;1773247;80;20996;-64
2021/04/15 11:25:41;;;;;;;13.22;9.60;;;;;;;15.43;46.42;99262.50;1776001;79;21157;-67
2021/04/15 11:28:26;;;;;;;16.67;10.00;;;;;;;15.47;46.51;99256.75;1766108;80;21189;-67
2021/04/15 11:31:02;;;;;;;9.25;8.35;;;;;;;15.52;46.48;99256.70;1769926;81;21030;-68
2021/04/15 11:33:43;;;;;;;11.88;7.67;;;;;;;15.54;46.18;99260.49;1770567;80;21152;-64
2021/04/15 11:36:25;;;;;;;8.28;7.33;;;;;;;15.52;46.32;99258.06;1756142;81;21280;-64
2021/04/15 11:39:13;;;;;;;16.87;9.28;;;;;;;15.53;46.27;99257.52;1784183;80;20951;-66
2021/04/15 11:42:06;;;;;;;14.63;10.00;;;;;;;15.56;46.28;99255.02;1773880;80;21482;-67
2021/04/15 11:44:48;;;;;;;14.85;10.10;;;;;;;15.67;46.37;99251.07;1757103;79;21597;-65
2021/04/15 11:47:29;;;;;;;16.25;11.28;;;;;;;15.70;46.32;99253.19;1790926;80;21218;-64
2021/04/15 11:50:20;;;;;;;10.82;8.95;;;;;;;15.77;46.00;99252.02;1772875;80;21183;-67
2021/04/15 11:52:53;;;;;;;17.67;9.83;;;;;;;15.83;45.74;99256.23;1768064;80;21181;-65
2021/04/15 11:55:32;;;;;;;12.45;9.50;;;;;;;15.85;45.76;99253.51;1788180;80;21228;-65
2021/04/15 11:58:05;;;;;;;16.85;9.33;;;;;;;15.92;45.53;99253.14;1785962;80;21177;-66
2021/04/15 12:00:44;;;;;;;10.63;7.92;;;;;;;15.99;45.46;99250.30;1789095;79;21169;-67
2021/04/15 12:03:16;;;;;;;14.43;9.40;;;;;;;16.02;45.16;99248.34;1805496;79;21179;-68
2021/04/15 12:05:45;;;;;;;13.88;8.18;;;;;;;15.99;45.31;99247.59;1795326;79;20988;-66
2021/04/15 12:08:24;;;;;;;10.60;9.45;;;;;;;16.03;45.25;99244.53;1777326;80;21131;-66
2021/04/15 12:10:58;;;;;;;22.85;10.50;;;;;;;16.03;45.01;99242.36;1753085;80;21148;-64
2021/04/15 12:13:38;;;;;;;9.70;6.58;;;;;;;15.98;44.94;99238.37;1734066;80;21041;-68
2021/04/15 12:16:40;;;;;;;14.03;9.33;;;;;;;15.90;44.86;99239.87;1799172;79;22139;-66
2021/04/15 12:19:41;;;;;;;16.70;6.85;;;;;;;15.88;44.72;99235.83;1798595;79;21130;-65
2021/04/15 12:22:49;;;;;;;9.73;7.05;;;;;;;15.88;44.62;99244.77;1787327;79;21737;-66
2021/04/15 12:25:30;;;;;;;30.27;8.55;;;;;;;15.91;44.61;99244.74;1761367;81;21192;-64
2021/04/15 12:28:36;;;;;;;13.00;8.60;;;;;;;15.84;45.02;99235.61;1761685;81;20993;-67
2021/04/15 12:31:17;;;;;;;;;;;;;;;15.75;45.13;99237.39;1782296;80;21203;-65
2021/04/15 12:33:50;;;;;;;11.85;8.23;;;;;;;15.65;46.67;99242.41;1759288;80;20292;-68
2021/04/15 12:36:26;;;;;;;11.97;7.90;;;;;;;15.55;48.06;99247.98;1729673;82;21131;-66
2021/04/15 12:39:00;;;;;;;20.37;12.33;;;;;;;15.49;48.21;99251.82;1771582;80;21066;-65
2021/04/15 12:41:30;;;;;;;17.30;13.88;;;;;;;15.45;48.73;99255.41;1785110;79;21379;-65
2021/04/15 12:44:20;;;;;;;42.45;27.30;;;;;;;15.36;49.35;99254.45;1760157;80;21586;-68